SBFZSBPB

Guest
Details From SBFZ - Pinto Martins
To SBPB - PREFEITO DOUTOR JOAO SILVA FILHO
Flight Number -
Tags generated
Created
Modified
Stats Distance 199 nm / 369 km
Max Altitude 18,500 ft / 5,639 m
Waypoints 6
Social Downloads 1
Likes 0
Share VATSIM

Download

Looking for another format? Having issues loading an existing format? Contact us
Advertisement - Login to hide

Notes

Basic altitude profile: - Ascent Rate: 2500ft/min - Ascent Speed: 250kts - Cruise Altitude: 35000ft - Cruise Speed: 420kts - Descent Rate: 1500ft/min - Descent Speed: 250kts Options: - Use NATs: yes - Use PACOTS: yes - Use low airways: yes - Use high airways: no

Route

SBFZ FLZ G677 PNB SBPB

ID Type Via Altitude Latitude Longitude Leg Dist Tot Dist Heading (true) Name
O SBFZ APT - 0 ft / 0 m -3.77628˚ -38.53256˚ - 0 nm - Pinto Martins
FLZ VOR - 300 ft / 91 m -3.77227˚ -38.54769˚ 0 nm 0 nm 285° / 285° FORTALEZA VOR-DME
CROMO FIX G677 (AWY-LO) 14,600 ft / 4,450 m -3.63367˚ -39.20017˚ 39 nm 40 nm 282° / 282° -
URT NDB G677 (AWY-LO) 18,500 ft / 5,639 m -3.58550˚ -39.42667˚ 13 nm 54 nm 282° / 282° URUBURETAMA NDB
PNB NDB G677 (AWY-LO) 5,500 ft / 1,676 m -2.89750˚ -41.72883˚ 144 nm 198 nm 287° / 287° PARNAIBA NDB
O SBPB APT - 0 ft / 0 m -2.89375˚ -41.73196˚ 0 nm 199 nm 320° / 320° PREFEITO DOUTOR JOAO SILVA FILHO

Altitude Profile

Advertisement - Login to hide

Weather


0- 5 10 15 20 25 30 35+ Temperature / ° C

Clouds and Precipitation
Forecast for 2017-12-18 18:00 UTC. Updated an hour ago

Ground ~20,000 ft ~40,000 ft Winds

SBFZ

Details ICAO SBFZ (FOR)
Name Pinto Martins
Region Brazil
Timezone America/Fortaleza (UTC-3.0)
Stats Elevation 82 ft / 25 m (AMSL)
Location -3.776283° -38.532556°
Runways 1
Magnetic Variation 21.125° W

METAR

SBFZ 181600Z 09019KT 9999 SCT030 31/22 Q1011

Decode

TAF

TAF SBFZ 181000Z 1812/1912 09016KT 9999 BKN023 TX31/1815Z TN26/1907Z BECMG 1815/1817 SCT025 BECMG 1821/1822 08009KT BECMG 1908/1910 09015KT BKN025 RMK PEU

Decode

Departure Runways

ID Width Length Bearing (true) Bearing (mag) Surface Threshold Offset Overrun Length
13 148 ft / 45 m 8,360 ft / 2,548 m 104.88° 126.01° Asphalt 0 ft / 0 m 195 ft / 59 m
31 148 ft / 45 m 8,360 ft / 2,548 m 284.88° 306.01° Asphalt 0 ft / 0 m 125 ft / 38 m

SBPB

Details ICAO SBPB
Name PREFEITO DOUTOR JOAO SILVA FILHO
Region Brazil
Timezone America/Fortaleza (UTC-3.0)
Stats Elevation 16 ft / 5 m (AMSL)
Location -2.893747° -41.731961°
Runways 1
Magnetic Variation 21.056° W

METAR

SBPB 181600Z 08017KT 9999 FEW020 SCT100 36/24 Q1010

Decode

TAF

Not found

Destination Runways

ID Width Length Bearing (true) Bearing (mag) Surface Threshold Offset Overrun Length
09 148 ft / 45 m 6,902 ft / 2,104 m 73.53° 94.59° Asphalt 0 ft / 0 m 0 ft / 0 m
27 148 ft / 45 m 6,902 ft / 2,104 m 253.53° 274.59° Asphalt 0 ft / 0 m 0 ft / 0 m

Popular Alternatives